sensor_id;sensor_type;location;lat;lon;timestamp;temperature;humidity
7598;DHT22;3840;59.32098800;18.06423600;2023-07-13T00:00:21;15.80;99.90
7598;DHT22;3840;59.32098800;18.06423600;2023-07-13T00:02:47;15.80;99.90
7598;DHT22;3840;59.32098800;18.06423600;2023-07-13T00:05:13;15.80;99.90
7598;DHT22;3840;59.32098800;18.06423600;2023-07-13T00:07:39;15.70;99.90
7598;DHT22;3840;59.32098800;18.06423600;2023-07-13T00:10:05;15.70;99.90
7598;DHT22;3840;59.32098800;18.06423600;2023-07-13T00:12:34;15.80;99.90
7598;DHT22;3840;59.32098800;18.06423600;2023-07-13T00:15:07;15.70;99.90
7598;DHT22;3840;59.32098800;18.06423600;2023-07-13T00:17:33;15.60;99.90
7598;DHT22;3840;59.32098800;18.06423600;2023-07-13T00:19:59;15.60;99.90
7598;DHT22;3840;59.32098800;18.06423600;2023-07-13T00:22:25;15.60;99.90
7598;DHT22;3840;59.32098800;18.06423600;2023-07-13T00:24:52;15.50;99.90
7598;DHT22;3840;59.32098800;18.06423600;2023-07-13T00:27:19;15.50;99.90
7598;DHT22;3840;59.32098800;18.06423600;2023-07-13T00:29:44;15.50;99.90
7598;DHT22;3840;59.32098800;18.06423600;2023-07-13T00:32:10;15.40;99.90
7598;DHT22;3840;59.32098800;18.06423600;2023-07-13T00:34:37;15.40;99.90
7598;DHT22;3840;59.32098800;18.06423600;2023-07-13T00:37:03;15.40;99.90
7598;DHT22;3840;59.32098800;18.06423600;2023-07-13T00:39:32;15.40;99.90
7598;DHT22;3840;59.32098800;18.06423600;2023-07-13T00:41:58;15.30;99.90
7598;DHT22;3840;59.32098800;18.06423600;2023-07-13T00:44:23;15.30;99.90
7598;DHT22;3840;59.32098800;18.06423600;2023-07-13T00:46:50;15.30;99.90
7598;DHT22;3840;59.32098800;18.06423600;2023-07-13T00:49:21;15.30;99.90
7598;DHT22;3840;59.32098800;18.06423600;2023-07-13T00:51:55;15.30;99.90
7598;DHT22;3840;59.32098800;18.06423600;2023-07-13T00:54:43;15.30;99.90
7598;DHT22;3840;59.32098800;18.06423600;2023-07-13T00:57:15;15.30;99.90
7598;DHT22;3840;59.32098800;18.06423600;2023-07-13T00:59:45;15.30;99.90
7598;DHT22;3840;59.32098800;18.06423600;2023-07-13T01:02:11;15.30;99.90
7598;DHT22;3840;59.32098800;18.06423600;2023-07-13T01:04:37;15.30;99.90
7598;DHT22;3840;59.32098800;18.06423600;2023-07-13T01:07:04;15.30;99.90
7598;DHT22;3840;59.32098800;18.06423600;2023-07-13T01:09:31;15.20;99.90
7598;DHT22;3840;59.32098800;18.06423600;2023-07-13T01:11:57;15.20;99.90
7598;DHT22;3840;59.32098800;18.06423600;2023-07-13T01:14:25;15.30;99.90
7598;DHT22;3840;59.32098800;18.06423600;2023-07-13T01:16:50;15.30;99.90
7598;DHT22;3840;59.32098800;18.06423600;2023-07-13T01:19:29;15.30;99.90
7598;DHT22;3840;59.32098800;18.06423600;2023-07-13T01:22:04;15.40;99.90
7598;DHT22;3840;59.32098800;18.06423600;2023-07-13T01:24:35;15.40;99.90
7598;DHT22;3840;59.32098800;18.06423600;2023-07-13T01:27:01;15.50;99.90
7598;DHT22;3840;59.32098800;18.06423600;2023-07-13T01:29:27;15.50;99.90
7598;DHT22;3840;59.32098800;18.06423600;2023-07-13T01:31:53;15.50;99.90
7598;DHT22;3840;59.32098800;18.06423600;2023-07-13T01:34:18;15.50;99.90
7598;DHT22;3840;59.32098800;18.06423600;2023-07-13T01:36:44;15.50;99.90
7598;DHT22;3840;59.32098800;18.06423600;2023-07-13T01:39:10;15.50;99.90
7598;DHT22;3840;59.32098800;18.06423600;2023-07-13T01:41:35;15.60;99.90
7598;DHT22;3840;59.32098800;18.06423600;2023-07-13T01:44:01;15.60;99.90
7598;DHT22;3840;59.32098800;18.06423600;2023-07-13T01:46:27;15.70;99.90
7598;DHT22;3840;59.32098800;18.06423600;2023-07-13T01:48:52;15.60;99.90
7598;DHT22;3840;59.32098800;18.06423600;2023-07-13T01:51:19;15.60;99.90
7598;DHT22;3840;59.32098800;18.06423600;2023-07-13T01:53:45;15.60;99.90
7598;DHT22;3840;59.32098800;18.06423600;2023-07-13T01:56:11;15.50;99.90
7598;DHT22;3840;59.32098800;18.06423600;2023-07-13T01:58:37;15.50;99.90
7598;DHT22;3840;59.32098800;18.06423600;2023-07-13T02:01:03;15.50;99.90
7598;DHT22;3840;59.32098800;18.06423600;2023-07-13T02:03:28;15.50;99.90
7598;DHT22;3840;59.32098800;18.06423600;2023-07-13T02:05:54;15.60;99.90
7598;DHT22;3840;59.32098800;18.06423600;2023-07-13T02:08:20;15.60;99.90
7598;DHT22;3840;59.32098800;18.06423600;2023-07-13T02:10:45;15.60;99.90
7598;DHT22;3840;59.32098800;18.06423600;2023-07-13T02:13:11;15.60;99.90
7598;DHT22;3840;59.32098800;18.06423600;2023-07-13T02:15:40;15.60;99.90
7598;DHT22;3840;59.32098800;18.06423600;2023-07-13T02:18:08;15.50;99.90
7598;DHT22;3840;59.32098800;18.06423600;2023-07-13T02:20:34;15.50;99.90
7598;DHT22;3840;59.32098800;18.06423600;2023-07-13T02:23:00;15.40;99.90
7598;DHT22;3840;59.32098800;18.06423600;2023-07-13T02:25:25;15.40;99.90
7598;DHT22;3840;59.32098800;18.06423600;2023-07-13T02:27:52;15.40;99.90
7598;DHT22;3840;59.32098800;18.06423600;2023-07-13T02:30:18;15.40;99.90
7598;DHT22;3840;59.32098800;18.06423600;2023-07-13T02:32:43;15.40;99.90
7598;DHT22;3840;59.32098800;18.06423600;2023-07-13T02:35:10;15.40;99.90
7598;DHT22;3840;59.32098800;18.06423600;2023-07-13T02:37:35;15.40;99.90
7598;DHT22;3840;59.32098800;18.06423600;2023-07-13T02:40:02;15.40;99.90
7598;DHT22;3840;59.32098800;18.06423600;2023-07-13T02:42:34;15.40;99.90
7598;DHT22;3840;59.32098800;18.06423600;2023-07-13T02:44:59;15.40;99.90
7598;DHT22;3840;59.32098800;18.06423600;2023-07-13T02:47:25;15.40;99.90
7598;DHT22;3840;59.32098800;18.06423600;2023-07-13T02:49:52;15.40;99.90
7598;DHT22;3840;59.32098800;18.06423600;2023-07-13T02:52:17;15.40;99.90
7598;DHT22;3840;59.32098800;18.06423600;2023-07-13T02:54:43;15.50;99.90
7598;DHT22;3840;59.32098800;18.06423600;2023-07-13T02:57:09;15.50;99.90
7598;DHT22;3840;59.32098800;18.06423600;2023-07-13T02:59:34;15.50;99.90
7598;DHT22;3840;59.32098800;18.06423600;2023-07-13T03:02:02;15.50;99.90
7598;DHT22;3840;59.32098800;18.06423600;2023-07-13T03:04:27;15.60;99.90
7598;DHT22;3840;59.32098800;18.06423600;2023-07-13T03:06:53;15.70;99.90
7598;DHT22;3840;59.32098800;18.06423600;2023-07-13T03:09:23;15.70;99.90
7598;DHT22;3840;59.32098800;18.06423600;2023-07-13T03:11:51;15.70;99.90
7598;DHT22;3840;59.32098800;18.06423600;2023-07-13T03:14:17;15.70;99.90
7598;DHT22;3840;59.32098800;18.06423600;2023-07-13T03:16:43;15.80;99.90
7598;DHT22;3840;59.32098800;18.06423600;2023-07-13T03:19:08;15.70;99.90
7598;DHT22;3840;59.32098800;18.06423600;2023-07-13T03:21:34;16.00;99.90
7598;DHT22;3840;59.32098800;18.06423600;2023-07-13T03:24:00;16.30;99.90
7598;DHT22;3840;59.32098800;18.06423600;2023-07-13T03:26:26;16.20;99.90
7598;DHT22;3840;59.32098800;18.06423600;2023-07-13T03:28:51;16.20;99.90
7598;DHT22;3840;59.32098800;18.06423600;2023-07-13T03:31:23;16.20;99.90
7598;DHT22;3840;59.32098800;18.06423600;2023-07-13T03:33:49;16.20;99.90
7598;DHT22;3840;59.32098800;18.06423600;2023-07-13T03:36:18;16.30;99.90
7598;DHT22;3840;59.32098800;18.06423600;2023-07-13T03:38:49;16.30;99.90
7598;DHT22;3840;59.32098800;18.06423600;2023-07-13T03:41:16;16.30;99.90
7598;DHT22;3840;59.32098800;18.06423600;2023-07-13T03:43:42;16.30;99.90
7598;DHT22;3840;59.32098800;18.06423600;2023-07-13T03:46:08;16.20;99.90
7598;DHT22;3840;59.32098800;18.06423600;2023-07-13T03:48:34;16.20;99.90
7598;DHT22;3840;59.32098800;18.06423600;2023-07-13T03:51:00;16.30;99.90
7598;DHT22;3840;59.32098800;18.06423600;2023-07-13T03:53:26;16.20;99.90
7598;DHT22;3840;59.32098800;18.06423600;2023-07-13T03:55:53;16.20;99.90
7598;DHT22;3840;59.32098800;18.06423600;2023-07-13T04:00:54;16.60;99.90
7598;DHT22;3840;59.32098800;18.06423600;2023-07-13T04:03:20;17.00;99.90
7598;DHT22;3840;59.32098800;18.06423600;2023-07-13T04:05:45;17.10;99.90
7598;DHT22;3840;59.32098800;18.06423600;2023-07-13T04:08:12;17.10;99.90
7598;DHT22;3840;59.32098800;18.06423600;2023-07-13T04:10:38;16.80;99.90
7598;DHT22;3840;59.32098800;18.06423600;2023-07-13T04:13:04;16.90;99.90
7598;DHT22;3840;59.32098800;18.06423600;2023-07-13T04:15:31;16.90;99.90
7598;DHT22;3840;59.32098800;18.06423600;2023-07-13T04:17:57;16.90;99.90
7598;DHT22;3840;59.32098800;18.06423600;2023-07-13T04:20:24;17.00;99.90
7598;DHT22;3840;59.32098800;18.06423600;2023-07-13T04:22:50;17.10;99.90
7598;DHT22;3840;59.32098800;18.06423600;2023-07-13T04:25:15;17.10;99.90
7598;DHT22;3840;59.32098800;18.06423600;2023-07-13T04:27:41;17.10;99.90
7598;DHT22;3840;59.32098800;18.06423600;2023-07-13T04:30:07;17.10;99.90
7598;DHT22;3840;59.32098800;18.06423600;2023-07-13T04:32:33;17.30;99.90
7598;DHT22;3840;59.32098800;18.06423600;2023-07-13T04:34:59;17.50;99.90
7598;DHT22;3840;59.32098800;18.06423600;2023-07-13T04:37:26;17.50;99.90
7598;DHT22;3840;59.32098800;18.06423600;2023-07-13T04:39:52;17.60;99.90
7598;DHT22;3840;59.32098800;18.06423600;2023-07-13T04:42:18;17.50;99.90
7598;DHT22;3840;59.32098800;18.06423600;2023-07-13T04:44:48;17.50;99.90
7598;DHT22;3840;59.32098800;18.06423600;2023-07-13T04:47:14;18.30;99.90
7598;DHT22;3840;59.32098800;18.06423600;2023-07-13T04:49:40;18.60;99.90
7598;DHT22;3840;59.32098800;18.06423600;2023-07-13T04:52:06;18.80;99.90
7598;DHT22;3840;59.32098800;18.06423600;2023-07-13T04:54:33;18.80;99.90
7598;DHT22;3840;59.32098800;18.06423600;2023-07-13T04:56:59;18.40;99.90
7598;DHT22;3840;59.32098800;18.06423600;2023-07-13T04:59:25;18.10;99.90
7598;DHT22;3840;59.32098800;18.06423600;2023-07-13T05:01:51;18.20;99.90
7598;DHT22;3840;59.32098800;18.06423600;2023-07-13T05:04:17;18.90;99.90
7598;DHT22;3840;59.32098800;18.06423600;2023-07-13T05:06:42;19.00;99.90
7598;DHT22;3840;59.32098800;18.06423600;2023-07-13T05:09:08;18.70;99.90
7598;DHT22;3840;59.32098800;18.06423600;2023-07-13T05:11:34;18.60;99.90
7598;DHT22;3840;59.32098800;18.06423600;2023-07-13T05:14:00;18.60;99.90
7598;DHT22;3840;59.32098800;18.06423600;2023-07-13T05:16:27;18.40;99.90
7598;DHT22;3840;59.32098800;18.06423600;2023-07-13T05:18:53;18.20;99.90
7598;DHT22;3840;59.32098800;18.06423600;2023-07-13T05:21:19;18.20;99.90
7598;DHT22;3840;59.32098800;18.06423600;2023-07-13T05:23:45;18.20;99.90
7598;DHT22;3840;59.32098800;18.06423600;2023-07-13T05:26:11;18.00;99.90
7598;DHT22;3840;59.32098800;18.06423600;2023-07-13T05:28:37;17.90;99.90
7598;DHT22;3840;59.32098800;18.06423600;2023-07-13T05:31:04;18.00;99.90
7598;DHT22;3840;59.32098800;18.06423600;2023-07-13T05:33:30;18.10;99.90
7598;DHT22;3840;59.32098800;18.06423600;2023-07-13T05:35:56;18.20;99.90
7598;DHT22;3840;59.32098800;18.06423600;2023-07-13T05:38:22;18.10;99.90
7598;DHT22;3840;59.32098800;18.06423600;2023-07-13T05:40:49;18.20;99.90
7598;DHT22;3840;59.32098800;18.06423600;2023-07-13T05:43:15;18.30;99.90
7598;DHT22;3840;59.32098800;18.06423600;2023-07-13T05:45:41;18.20;99.90
7598;DHT22;3840;59.32098800;18.06423600;2023-07-13T05:48:07;17.90;99.90
7598;DHT22;3840;59.32098800;18.06423600;2023-07-13T05:50:32;18.00;99.90
7598;DHT22;3840;59.32098800;18.06423600;2023-07-13T05:52:58;18.00;99.90
7598;DHT22;3840;59.32098800;18.06423600;2023-07-13T05:55:24;18.10;99.90
7598;DHT22;3840;59.32098800;18.06423600;2023-07-13T05:57:50;18.30;99.90
7598;DHT22;3840;59.32098800;18.06423600;2023-07-13T06:00:17;18.40;99.90
7598;DHT22;3840;59.32098800;18.06423600;2023-07-13T06:02:42;18.60;99.90
7598;DHT22;3840;59.32098800;18.06423600;2023-07-13T06:05:08;18.50;99.90
7598;DHT22;3840;59.32098800;18.06423600;2023-07-13T06:07:34;18.60;99.90
7598;DHT22;3840;59.32098800;18.06423600;2023-07-13T06:10:00;18.70;99.90
7598;DHT22;3840;59.32098800;18.06423600;2023-07-13T06:12:26;18.70;99.90
7598;DHT22;3840;59.32098800;18.06423600;2023-07-13T06:14:52;18.60;99.90
7598;DHT22;3840;59.32098800;18.06423600;2023-07-13T06:17:18;18.40;99.90
7598;DHT22;3840;59.32098800;18.06423600;2023-07-13T06:19:44;18.10;99.90
7598;DHT22;3840;59.32098800;18.06423600;2023-07-13T06:22:09;18.00;99.90
7598;DHT22;3840;59.32098800;18.06423600;2023-07-13T06:24:35;18.10;99.90
7598;DHT22;3840;59.32098800;18.06423600;2023-07-13T06:27:01;17.90;99.90
7598;DHT22;3840;59.32098800;18.06423600;2023-07-13T06:29:26;17.90;99.90
7598;DHT22;3840;59.32098800;18.06423600;2023-07-13T06:31:52;18.10;99.90
7598;DHT22;3840;59.32098800;18.06423600;2023-07-13T06:34:18;18.00;99.90
7598;DHT22;3840;59.32098800;18.06423600;2023-07-13T06:36:44;17.80;99.90
7598;DHT22;3840;59.32098800;18.06423600;2023-07-13T06:39:10;17.70;99.90
7598;DHT22;3840;59.32098800;18.06423600;2023-07-13T06:41:35;17.80;99.90
7598;DHT22;3840;59.32098800;18.06423600;2023-07-13T06:44:01;17.90;99.90
7598;DHT22;3840;59.32098800;18.06423600;2023-07-13T06:46:28;17.90;99.90
7598;DHT22;3840;59.32098800;18.06423600;2023-07-13T06:48:55;18.00;99.90
7598;DHT22;3840;59.32098800;18.06423600;2023-07-13T06:51:21;18.10;99.90
7598;DHT22;3840;59.32098800;18.06423600;2023-07-13T06:53:46;18.20;99.90
7598;DHT22;3840;59.32098800;18.06423600;2023-07-13T06:56:12;18.10;99.90
7598;DHT22;3840;59.32098800;18.06423600;2023-07-13T06:58:38;17.90;99.90
7598;DHT22;3840;59.32098800;18.06423600;2023-07-13T07:01:05;17.80;99.90
7598;DHT22;3840;59.32098800;18.06423600;2023-07-13T07:03:30;17.90;99.90
7598;DHT22;3840;59.32098800;18.06423600;2023-07-13T07:08:34;17.80;99.90
7598;DHT22;3840;59.32098800;18.06423600;2023-07-13T07:11:00;18.00;99.90
7598;DHT22;3840;59.32098800;18.06423600;2023-07-13T07:13:25;18.00;99.90
7598;DHT22;3840;59.32098800;18.06423600;2023-07-13T07:15:53;17.80;99.90
7598;DHT22;3840;59.32098800;18.06423600;2023-07-13T07:18:19;17.80;99.90
7598;DHT22;3840;59.32098800;18.06423600;2023-07-13T07:20:45;18.00;99.90
7598;DHT22;3840;59.32098800;18.06423600;2023-07-13T07:23:11;18.00;99.90
7598;DHT22;3840;59.32098800;18.06423600;2023-07-13T07:25:36;18.10;99.90
7598;DHT22;3840;59.32098800;18.06423600;2023-07-13T07:28:08;18.10;99.90
7598;DHT22;3840;59.32098800;18.06423600;2023-07-13T07:30:34;18.10;99.90
7598;DHT22;3840;59.32098800;18.06423600;2023-07-13T07:33:00;18.00;99.90
7598;DHT22;3840;59.32098800;18.06423600;2023-07-13T07:35:26;18.10;99.90
7598;DHT22;3840;59.32098800;18.06423600;2023-07-13T07:37:52;18.30;99.90
7598;DHT22;3840;59.32098800;18.06423600;2023-07-13T07:40:18;18.30;99.90
7598;DHT22;3840;59.32098800;18.06423600;2023-07-13T07:42:44;18.30;99.90
7598;DHT22;3840;59.32098800;18.06423600;2023-07-13T07:45:10;18.40;99.90
7598;DHT22;3840;59.32098800;18.06423600;2023-07-13T07:47:38;18.50;99.90
7598;DHT22;3840;59.32098800;18.06423600;2023-07-13T07:50:04;18.70;99.90
7598;DHT22;3840;59.32098800;18.06423600;2023-07-13T07:52:30;18.70;99.90
7598;DHT22;3840;59.32098800;18.06423600;2023-07-13T07:54:56;18.70;99.90
7598;DHT22;3840;59.32098800;18.06423600;2023-07-13T07:57:22;18.80;99.90
7598;DHT22;3840;59.32098800;18.06423600;2023-07-13T07:59:48;18.80;99.90
7598;DHT22;3840;59.32098800;18.06423600;2023-07-13T08:02:14;19.00;99.90
7598;DHT22;3840;59.32098800;18.06423600;2023-07-13T08:04:40;18.90;99.90
7598;DHT22;3840;59.32098800;18.06423600;2023-07-13T08:07:05;18.90;99.90
7598;DHT22;3840;59.32098800;18.06423600;2023-07-13T08:09:32;18.90;99.90
7598;DHT22;3840;59.32098800;18.06423600;2023-07-13T08:11:57;19.00;99.90
7598;DHT22;3840;59.32098800;18.06423600;2023-07-13T08:14:23;19.10;99.90
7598;DHT22;3840;59.32098800;18.06423600;2023-07-13T08:16:49;19.20;99.90
7598;DHT22;3840;59.32098800;18.06423600;2023-07-13T08:19:15;19.30;99.90
7598;DHT22;3840;59.32098800;18.06423600;2023-07-13T08:21:41;19.20;99.90
7598;DHT22;3840;59.32098800;18.06423600;2023-07-13T08:24:09;19.30;99.90
7598;DHT22;3840;59.32098800;18.06423600;2023-07-13T08:26:35;19.30;99.90
7598;DHT22;3840;59.32098800;18.06423600;2023-07-13T08:29:01;19.40;99.90
7598;DHT22;3840;59.32098800;18.06423600;2023-07-13T08:31:28;19.50;99.90
7598;DHT22;3840;59.32098800;18.06423600;2023-07-13T08:33:54;19.70;99.90
7598;DHT22;3840;59.32098800;18.06423600;2023-07-13T08:36:20;19.60;99.90
7598;DHT22;3840;59.32098800;18.06423600;2023-07-13T08:38:45;19.60;99.90
7598;DHT22;3840;59.32098800;18.06423600;2023-07-13T08:41:14;19.50;99.90
7598;DHT22;3840;59.32098800;18.06423600;2023-07-13T08:43:41;19.50;99.90
7598;DHT22;3840;59.32098800;18.06423600;2023-07-13T08:46:23;19.60;99.90
7598;DHT22;3840;59.32098800;18.06423600;2023-07-13T08:48:52;19.70;99.90
7598;DHT22;3840;59.32098800;18.06423600;2023-07-13T08:53:52;19.60;99.90
7598;DHT22;3840;59.32098800;18.06423600;2023-07-13T08:56:23;19.60;99.90
7598;DHT22;3840;59.32098800;18.06423600;2023-07-13T08:58:54;19.60;99.90
7598;DHT22;3840;59.32098800;18.06423600;2023-07-13T09:01:31;19.60;99.90
7598;DHT22;3840;59.32098800;18.06423600;2023-07-13T09:04:04;19.60;99.90
7598;DHT22;3840;59.32098800;18.06423600;2023-07-13T09:06:40;19.70;99.90
7598;DHT22;3840;59.32098800;18.06423600;2023-07-13T09:10:01;19.80;99.90
7598;DHT22;3840;59.32098800;18.06423600;2023-07-13T09:12:27;20.00;99.90
7598;DHT22;3840;59.32098800;18.06423600;2023-07-13T09:14:57;20.20;99.90
7598;DHT22;3840;59.32098800;18.06423600;2023-07-13T09:17:27;20.60;99.90
7598;DHT22;3840;59.32098800;18.06423600;2023-07-13T09:20:04;20.60;99.90
7598;DHT22;3840;59.32098800;18.06423600;2023-07-13T09:22:34;20.70;99.90
7598;DHT22;3840;59.32098800;18.06423600;2023-07-13T09:25:27;20.70;99.90
7598;DHT22;3840;59.32098800;18.06423600;2023-07-13T09:33:42;20.40;99.90
7598;DHT22;3840;59.32098800;18.06423600;2023-07-13T09:36:21;20.50;99.90
7598;DHT22;3840;59.32098800;18.06423600;2023-07-13T09:41:45;20.90;99.90
7598;DHT22;3840;59.32098800;18.06423600;2023-07-13T09:44:27;21.00;99.90
7598;DHT22;3840;59.32098800;18.06423600;2023-07-13T09:46:55;20.90;99.90
7598;DHT22;3840;59.32098800;18.06423600;2023-07-13T09:49:28;21.10;99.90
7598;DHT22;3840;59.32098800;18.06423600;2023-07-13T09:52:00;21.00;99.90
7598;DHT22;3840;59.32098800;18.06423600;2023-07-13T09:54:26;21.00;99.90
7598;DHT22;3840;59.32098800;18.06423600;2023-07-13T09:56:56;21.00;99.90
7598;DHT22;3840;59.32098800;18.06423600;2023-07-13T09:59:28;20.70;99.90
7598;DHT22;3840;59.32098800;18.06423600;2023-07-13T10:01:54;20.90;99.90
7598;DHT22;3840;59.32098800;18.06423600;2023-07-13T10:04:31;21.00;99.90
7598;DHT22;3840;59.32098800;18.06423600;2023-07-13T10:07:09;21.20;99.90
7598;DHT22;3840;59.32098800;18.06423600;2023-07-13T10:09:35;21.10;99.90
7598;DHT22;3840;59.32098800;18.06423600;2023-07-13T10:12:01;21.10;99.90
7598;DHT22;3840;59.32098800;18.06423600;2023-07-13T10:14:28;21.20;99.90
7598;DHT22;3840;59.32098800;18.06423600;2023-07-13T10:17:01;21.10;99.90
7598;DHT22;3840;59.32098800;18.06423600;2023-07-13T10:19:31;21.00;99.90
7598;DHT22;3840;59.32098800;18.06423600;2023-07-13T10:22:10;21.00;99.90
7598;DHT22;3840;59.32098800;18.06423600;2023-07-13T10:24:39;20.90;99.90
7598;DHT22;3840;59.32098800;18.06423600;2023-07-13T10:27:27;20.90;99.90
7598;DHT22;3840;59.32098800;18.06423600;2023-07-13T10:30:12;20.80;99.90
7598;DHT22;3840;59.32098800;18.06423600;2023-07-13T10:32:39;20.80;99.90
7598;DHT22;3840;59.32098800;18.06423600;2023-07-13T10:35:05;20.90;99.90
7598;DHT22;3840;59.32098800;18.06423600;2023-07-13T10:37:54;21.10;99.90
7598;DHT22;3840;59.32098800;18.06423600;2023-07-13T10:40:41;21.10;99.90
7598;DHT22;3840;59.32098800;18.06423600;2023-07-13T10:43:20;21.30;99.90
7598;DHT22;3840;59.32098800;18.06423600;2023-07-13T10:45:48;21.30;99.90
7598;DHT22;3840;59.32098800;18.06423600;2023-07-13T10:48:17;21.40;99.90
7598;DHT22;3840;59.32098800;18.06423600;2023-07-13T10:50:45;21.60;99.90
7598;DHT22;3840;59.32098800;18.06423600;2023-07-13T10:53:19;21.50;99.90
7598;DHT22;3840;59.32098800;18.06423600;2023-07-13T10:58:21;21.40;99.90
7598;DHT22;3840;59.32098800;18.06423600;2023-07-13T11:00:51;21.10;99.90
7598;DHT22;3840;59.32098800;18.06423600;2023-07-13T11:03:21;20.90;99.90
7598;DHT22;3840;59.32098800;18.06423600;2023-07-13T11:06:03;20.80;99.90
7598;DHT22;3840;59.32098800;18.06423600;2023-07-13T11:21:28;21.00;99.90
7598;DHT22;3840;59.32098800;18.06423600;2023-07-13T11:24:28;21.00;99.90
7598;DHT22;3840;59.32098800;18.06423600;2023-07-13T11:26:56;21.30;99.90
7598;DHT22;3840;59.32098800;18.06423600;2023-07-13T11:29:41;21.40;99.90
7598;DHT22;3840;59.32098800;18.06423600;2023-07-13T11:32:30;21.40;99.90
7598;DHT22;3840;59.32098800;18.06423600;2023-07-13T11:34:57;21.20;99.90
7598;DHT22;3840;59.32098800;18.06423600;2023-07-13T11:37:23;21.20;99.90
7598;DHT22;3840;59.32098800;18.06423600;2023-07-13T11:39:51;21.10;99.90
7598;DHT22;3840;59.32098800;18.06423600;2023-07-13T11:42:18;21.20;99.90
7598;DHT22;3840;59.32098800;18.06423600;2023-07-13T11:44:50;21.40;99.90
7598;DHT22;3840;59.32098800;18.06423600;2023-07-13T11:47:22;21.40;99.90
7598;DHT22;3840;59.32098800;18.06423600;2023-07-13T11:49:53;21.40;99.90
7598;DHT22;3840;59.32098800;18.06423600;2023-07-13T11:52:32;21.40;99.90
7598;DHT22;3840;59.32098800;18.06423600;2023-07-13T11:55:01;21.60;99.90
7598;DHT22;3840;59.32098800;18.06423600;2023-07-13T11:57:44;21.70;99.90
7598;DHT22;3840;59.32098800;18.06423600;2023-07-13T12:00:17;21.60;99.90
7598;DHT22;3840;59.32098800;18.06423600;2023-07-13T12:02:46;21.50;99.90
7598;DHT22;3840;59.32098800;18.06423600;2023-07-13T12:05:16;21.30;99.90
7598;DHT22;3840;59.32098800;18.06423600;2023-07-13T12:07:51;21.30;99.90
7598;DHT22;3840;59.32098800;18.06423600;2023-07-13T12:10:28;21.30;99.90
7598;DHT22;3840;59.32098800;18.06423600;2023-07-13T12:13:00;21.30;99.90
7598;DHT22;3840;59.32098800;18.06423600;2023-07-13T12:18:01;21.60;99.90
7598;DHT22;3840;59.32098800;18.06423600;2023-07-13T12:20:33;21.60;99.90
7598;DHT22;3840;59.32098800;18.06423600;2023-07-13T12:23:00;21.70;99.90
7598;DHT22;3840;59.32098800;18.06423600;2023-07-13T12:25:28;21.80;99.90
7598;DHT22;3840;59.32098800;18.06423600;2023-07-13T12:27:55;21.80;99.90
7598;DHT22;3840;59.32098800;18.06423600;2023-07-13T12:33:01;21.80;99.90
7598;DHT22;3840;59.32098800;18.06423600;2023-07-13T12:35:29;21.90;99.90
7598;DHT22;3840;59.32098800;18.06423600;2023-07-13T12:37:57;22.10;99.90
7598;DHT22;3840;59.32098800;18.06423600;2023-07-13T12:40:31;22.10;99.90
7598;DHT22;3840;59.32098800;18.06423600;2023-07-13T12:42:58;21.90;99.90
7598;DHT22;3840;59.32098800;18.06423600;2023-07-13T12:45:26;21.80;99.90
7598;DHT22;3840;59.32098800;18.06423600;2023-07-13T12:47:57;21.90;99.90
7598;DHT22;3840;59.32098800;18.06423600;2023-07-13T12:50:47;21.90;99.90
7598;DHT22;3840;59.32098800;18.06423600;2023-07-13T12:53:23;22.00;99.90
7598;DHT22;3840;59.32098800;18.06423600;2023-07-13T12:55:57;22.10;99.90
7598;DHT22;3840;59.32098800;18.06423600;2023-07-13T13:00:57;22.10;99.90
7598;DHT22;3840;59.32098800;18.06423600;2023-07-13T13:03:35;22.10;99.90
7598;DHT22;3840;59.32098800;18.06423600;2023-07-13T13:08:40;22.70;99.90
7598;DHT22;3840;59.32098800;18.06423600;2023-07-13T13:11:08;22.80;99.90
7598;DHT22;3840;59.32098800;18.06423600;2023-07-13T13:13:35;22.70;99.90
7598;DHT22;3840;59.32098800;18.06423600;2023-07-13T13:18:53;22.70;99.90
7598;DHT22;3840;59.32098800;18.06423600;2023-07-13T13:21:20;22.50;99.90
7598;DHT22;3840;59.32098800;18.06423600;2023-07-13T13:23:46;22.60;99.90
7598;DHT22;3840;59.32098800;18.06423600;2023-07-13T13:26:14;22.80;99.90
7598;DHT22;3840;59.32098800;18.06423600;2023-07-13T13:28:42;22.80;99.90
7598;DHT22;3840;59.32098800;18.06423600;2023-07-13T13:31:08;22.80;99.90
7598;DHT22;3840;59.32098800;18.06423600;2023-07-13T13:33:42;22.70;99.90
7598;DHT22;3840;59.32098800;18.06423600;2023-07-13T13:36:19;22.60;99.90
7598;DHT22;3840;59.32098800;18.06423600;2023-07-13T13:38:47;22.70;99.90
7598;DHT22;3840;59.32098800;18.06423600;2023-07-13T13:41:14;22.70;99.90
7598;DHT22;3840;59.32098800;18.06423600;2023-07-13T13:43:42;22.80;99.90
7598;DHT22;3840;59.32098800;18.06423600;2023-07-13T13:46:20;22.70;99.90
7598;DHT22;3840;59.32098800;18.06423600;2023-07-13T13:48:46;22.90;99.90
7598;DHT22;3840;59.32098800;18.06423600;2023-07-13T13:51:18;23.00;99.90
7598;DHT22;3840;59.32098800;18.06423600;2023-07-13T13:53:45;23.00;99.90
7598;DHT22;3840;59.32098800;18.06423600;2023-07-13T13:56:12;22.60;99.90
7598;DHT22;3840;59.32098800;18.06423600;2023-07-13T13:58:37;22.30;99.90
7598;DHT22;3840;59.32098800;18.06423600;2023-07-13T14:01:03;22.40;99.90
7598;DHT22;3840;59.32098800;18.06423600;2023-07-13T14:03:33;22.70;99.90
7598;DHT22;3840;59.32098800;18.06423600;2023-07-13T14:05:59;22.80;99.90
7598;DHT22;3840;59.32098800;18.06423600;2023-07-13T14:08:25;22.80;99.90
7598;DHT22;3840;59.32098800;18.06423600;2023-07-13T14:10:53;22.80;99.90
7598;DHT22;3840;59.32098800;18.06423600;2023-07-13T14:13:36;23.10;99.90
7598;DHT22;3840;59.32098800;18.06423600;2023-07-13T14:16:11;23.20;99.90
7598;DHT22;3840;59.32098800;18.06423600;2023-07-13T14:18:37;23.20;99.90
7598;DHT22;3840;59.32098800;18.06423600;2023-07-13T14:21:04;23.20;99.90
7598;DHT22;3840;59.32098800;18.06423600;2023-07-13T14:23:34;23.20;99.90
7598;DHT22;3840;59.32098800;18.06423600;2023-07-13T14:25:59;23.40;99.90